Time;durP1;ratioP1;P1;durP2;ratioP2;P2;SDS_P1;SDS_P2;PMS_P1;PMS_P2;Temp;Humidity;BMP_temperature;BMP_pressure;BME280_temperature;BME280_humidity;BME280_pressure;Samples;Min_cycle;Max_cycle;Signal;HPM_P1;HPM_P2
2023/09/24 00:02:10;;;;;;;;;21.25;17.75;;;;;15.42;58.19;101718.59;5055297;28;45506;-75
2023/09/24 00:04:36;;;;;;;;;19.50;16.25;;;;;15.41;58.26;101727.44;5043744;28;45646;-75
2023/09/24 00:07:02;;;;;;;;;21.00;13.75;;;;;15.41;58.01;101724.81;5055458;28;45912;-75
2023/09/24 00:09:27;;;;;;;;;16.50;13.25;;;;;15.37;57.95;101718.75;5057682;28;45398;-74
2023/09/24 00:11:52;;;;;;;;;19.25;13.00;;;;;15.37;58.11;101720.56;5055913;28;45887;-74
2023/09/24 00:14:18;;;;;;;;;15.50;10.50;;;;;15.37;58.09;101724.03;5050926;28;63753;-74
2023/09/24 00:16:43;;;;;;;;;10.25;10.25;;;;;15.38;58.42;101720.47;5048908;28;50252;-75
2023/09/24 00:19:09;;;;;;;;;17.00;14.25;;;;;15.36;58.42;101722.31;5059933;28;45295;-74
2023/09/24 00:21:34;;;;;;;;;16.50;15.25;;;;;15.36;58.07;101724.09;5046952;28;45458;-74
2023/09/24 00:23:59;;;;;;;;;16.00;13.00;;;;;15.33;58.13;101718.91;5052374;28;45570;-74
2023/09/24 00:26:25;;;;;;;;;16.00;12.50;;;;;15.34;58.38;101726.75;5033777;28;76086;-75
2023/09/24 00:28:51;;;;;;;;;17.75;11.75;;;;;15.35;58.25;101719.72;5067258;27;53597;-75
2023/09/24 00:31:16;;;;;;;;;16.25;10.00;;;;;15.34;58.52;101720.63;5052547;28;45450;-74
2023/09/24 00:33:42;;;;;;;;;15.75;13.75;;;;;15.32;59.01;101728.59;5054727;28;45218;-74
2023/09/24 00:36:07;;;;;;;;;19.25;14.50;;;;;15.32;59.21;101738.28;5037722;28;62088;-74
2023/09/24 00:38:33;;;;;;;;;16.75;16.25;;;;;15.33;58.95;101737.34;5042097;28;62494;-74
2023/09/24 00:40:58;;;;;;;;;18.50;15.75;;;;;15.31;59.22;101740.03;5055034;28;45482;-74
2023/09/24 00:43:32;;;;;;;;;19.50;17.75;;;;;15.29;59.48;101735.75;5049218;28;45475;-75
2023/09/24 00:46:06;;;;;;;;;29.25;21.00;;;;;15.31;59.78;101747.09;5055771;28;46336;-75
2023/09/24 00:48:32;;;;;;;;;24.50;16.75;;;;;15.28;59.66;101740.16;5042240;28;46053;-74
2023/09/24 00:51:03;;;;;;;;;22.25;16.25;;;;;15.27;59.67;101745.47;5053069;28;45562;-74
2023/09/24 00:53:29;;;;;;;;;20.00;17.25;;;;;15.25;60.26;101753.44;5055479;28;45785;-74
2023/09/24 00:55:55;;;;;;;;;19.00;17.25;;;;;15.24;60.04;101737.66;5045477;28;45516;-74
2023/09/24 00:58:23;;;;;;;;;23.25;17.00;;;;;15.21;60.23;101748.28;5053451;28;45461;-74
2023/09/24 01:00:50;;;;;;;;;15.75;15.00;;;;;15.20;60.59;101744.78;5051745;28;45327;-74
2023/09/24 01:03:16;;;;;;;;;20.00;16.25;;;;;15.16;60.31;101730.84;5048272;28;45709;-74
2023/09/24 01:05:41;;;;;;;;;20.00;17.25;;;;;15.16;60.21;101741.38;5046478;28;68811;-74
2023/09/24 01:08:07;;;;;;;;;21.50;18.50;;;;;15.14;60.54;101734.44;5047541;28;45468;-74
2023/09/24 01:10:32;;;;;;;;;17.25;15.25;;;;;15.13;60.17;101735.34;5050818;28;45597;-74
2023/09/24 01:13:04;;;;;;;;;20.00;15.50;;;;;15.08;60.84;101738.09;5055352;28;45319;-74
2023/09/24 01:15:31;;;;;;;;;21.25;16.50;;;;;15.06;60.98;101726.75;5063235;28;46326;-74
2023/09/24 01:17:57;;;;;;;;;18.75;14.00;;;;;15.08;61.05;101743.38;5044988;28;45610;-73
2023/09/24 01:20:26;;;;;;;;;15.50;14.00;;;;;15.06;61.43;101734.66;5053179;28;45540;-74
2023/09/24 01:22:51;;;;;;;;;22.50;17.25;;;;;15.05;61.15;101730.31;5048126;28;45715;-73
2023/09/24 01:25:20;;;;;;;;;18.75;16.00;;;;;15.07;61.52;101736.38;5053298;28;47078;-73
2023/09/24 01:27:46;;;;;;;;;20.25;18.25;;;;;15.04;61.26;101738.25;5042007;28;46064;-73
2023/09/24 01:30:13;;;;;;;;;16.75;12.50;;;;;15.04;61.40;101740.88;5052871;28;45635;-73
2023/09/24 01:32:40;;;;;;;;;20.25;16.25;;;;;15.00;61.27;101734.84;5068914;27;45479;-73
2023/09/24 01:35:06;;;;;;;;;20.75;15.00;;;;;15.01;61.87;101744.47;5050109;28;45340;-73
2023/09/24 01:37:34;;;;;;;;;17.00;15.50;;;;;14.97;61.57;101737.56;5045905;28;45383;-73
2023/09/24 01:40:06;;;;;;;;;21.00;16.75;;;;;14.95;61.76;101748.16;5061588;28;45948;-73
2023/09/24 01:42:34;;;;;;;;;17.25;15.00;;;;;14.94;61.96;101750.81;5052122;28;45225;-73
2023/09/24 01:44:59;;;;;;;;;16.50;13.50;;;;;14.90;61.83;101747.41;5043418;28;46129;-73
2023/09/24 01:47:24;;;;;;;;;14.25;13.25;;;;;14.91;61.98;101745.63;5049247;28;58512;-73
2023/09/24 01:49:50;;;;;;;;;18.50;17.50;;;;;14.88;62.39;101745.75;5053410;28;71002;-73
2023/09/24 01:52:16;;;;;;;;;17.25;15.25;;;;;14.90;62.17;101754.47;5044472;28;46225;-73
2023/09/24 01:54:41;;;;;;;;;18.00;13.50;;;;;14.88;62.00;101754.50;5048396;28;45458;-73
2023/09/24 01:57:07;;;;;;;;;19.25;15.00;;;;;14.84;62.04;101742.34;5047064;28;65097;-73
2023/09/24 01:59:33;;;;;;;;;18.00;13.00;;;;;14.81;62.49;101751.16;5050592;28;45321;-73
2023/09/24 02:01:59;;;;;;;;;13.50;10.75;;;;;14.81;61.98;101751.16;5070466;27;45463;-73
2023/09/24 02:04:24;;;;;;;;;19.75;15.00;;;;;14.79;62.32;101749.50;5049453;28;45604;-73
2023/09/24 02:06:50;;;;;;;;;16.50;13.50;;;;;14.74;62.33;101743.50;5047083;28;61198;-73
2023/09/24 02:09:16;;;;;;;;;15.25;14.00;;;;;14.75;62.45;101755.75;5063455;27;45257;-73
2023/09/24 02:11:41;;;;;;;;;12.50;8.25;;;;;14.75;62.60;101758.38;5062106;28;45457;-73
2023/09/24 02:14:07;;;;;;;;;15.25;14.25;;;;;14.71;62.13;101751.47;5040011;28;67460;-73
2023/09/24 02:16:33;;;;;;;;;21.00;14.50;;;;;14.71;62.29;101757.59;5052005;28;46026;-72
2023/09/24 02:18:58;;;;;;;;;17.75;16.50;;;;;14.68;62.67;101759.47;5067325;28;45548;-73
2023/09/24 02:21:24;;;;;;;;;20.00;15.25;;;;;14.66;62.36;101756.91;5052438;28;45425;-72
2023/09/24 02:23:52;;;;;;;;;14.50;14.25;;;;;14.63;62.64;101753.47;5052422;28;46796;-72
2023/09/24 02:26:18;;;;;;;;;14.75;12.50;;;;;14.62;62.51;101757.88;5057803;28;45850;-72
2023/09/24 02:28:43;;;;;;;;;20.50;12.50;;;;;14.59;62.70;101756.19;5050562;28;68590;-72
2023/09/24 02:31:15;;;;;;;;;13.00;11.50;;;;;14.56;62.81;101758.88;5043753;28;45513;-73
2023/09/24 02:33:40;;;;;;;;;13.00;11.75;;;;;14.52;62.61;101754.59;5049219;28;46256;-72
2023/09/24 02:36:08;;;;;;;;;13.50;12.25;;;;;14.50;62.50;101755.53;5057087;28;45446;-72
2023/09/24 02:38:34;;;;;;;;;9.50;9.50;;;;;14.47;62.78;101755.63;5051113;28;45437;-73
2023/09/24 02:40:59;;;;;;;;;14.25;13.00;;;;;14.41;62.81;101747.00;5051445;28;45457;-72
2023/09/24 02:43:25;;;;;;;;;11.00;9.75;;;;;14.38;62.87;101747.06;5049374;28;65992;-72
2023/09/24 02:45:50;;;;;;;;;12.50;11.50;;;;;14.38;63.16;101760.22;5051294;28;45391;-72
2023/09/24 02:48:18;;;;;;;;;12.25;10.50;;;;;14.36;62.73;101763.78;5043873;28;45496;-72
2023/09/24 02:50:44;;;;;;;;;17.25;11.00;;;;;14.30;62.61;101754.28;5042348;28;45624;-72
2023/09/24 02:53:10;;;;;;;;;12.75;11.25;;;;;14.28;63.04;101766.63;5043344;28;45383;-72
2023/09/24 02:55:36;;;;;;;;;11.50;8.50;;;;;14.24;63.28;101759.72;5053778;28;45338;-73
2023/09/24 02:58:04;;;;;;;;;12.75;9.75;;;;;14.22;63.13;101765.03;5053097;28;45323;-73
2023/09/24 03:00:35;;;;;;;;;12.00;11.00;;;;;14.21;63.15;101773.81;5035901;28;45820;-73
2023/09/24 03:03:01;;;;;;;;;11.00;9.25;;;;;14.18;63.30;101765.13;5058790;28;45395;-73
2023/09/24 03:05:29;;;;;;;;;14.75;11.00;;;;;14.17;63.46;101771.31;5044400;28;45922;-72
2023/09/24 03:07:56;;;;;;;;;14.00;10.50;;;;;14.15;63.29;101759.97;5052642;28;45259;-73
2023/09/24 03:10:22;;;;;;;;;11.75;10.50;;;;;14.15;63.29;101763.47;5055460;28;45603;-72
2023/09/24 03:12:49;;;;;;;;;12.00;10.00;;;;;14.12;63.10;101768.78;5052371;28;46505;-72
2023/09/24 03:15:15;;;;;;;;;14.25;10.75;;;;;14.07;63.36;101764.56;5053175;28;45798;-72
2023/09/24 03:17:46;;;;;;;;;18.25;13.00;;;;;14.05;63.15;101761.97;5048170;28;45430;-73
2023/09/24 03:20:14;;;;;;;;;14.75;11.00;;;;;14.04;63.27;101765.47;5052560;28;45527;-73
2023/09/24 03:22:48;;;;;;;;;12.00;9.00;;;;;14.05;63.23;101768.06;5043001;28;45365;-72
2023/09/24 03:25:17;;;;;;;;;12.50;10.00;;;;;14.00;63.72;101763.84;5067975;27;45366;-72
2023/09/24 03:27:43;;;;;;;;;14.00;11.00;;;;;14.06;63.51;101774.22;5058749;28;45204;-72
2023/09/24 03:30:10;;;;;;;;;10.75;9.50;;;;;14.03;63.54;101775.16;5046820;28;45371;-72
2023/09/24 03:32:39;;;;;;;;;10.00;9.00;;;;;13.94;63.36;101761.38;5049554;28;46278;-72
2023/09/24 03:35:06;;;;;;;;;11.00;8.75;;;;;13.93;63.28;101764.88;5045968;28;45489;-72
2023/09/24 03:37:32;;;;;;;;;14.50;9.75;;;;;14.05;63.29;101775.97;5041629;28;45447;-72
2023/09/24 03:39:57;;;;;;;;;9.00;9.00;;;;;14.05;63.64;101775.13;5053069;28;45624;-72
2023/09/24 03:42:23;;;;;;;;;10.50;9.50;;;;;13.94;63.60;101764.00;5048024;28;46444;-72
2023/09/24 03:44:48;;;;;;;;;14.25;11.00;;;;;13.91;63.85;101759.66;5058273;28;45340;-72
2023/09/24 03:47:14;;;;;;;;;12.25;10.00;;;;;13.98;63.77;101771.75;5051299;28;45287;-72
2023/09/24 03:49:41;;;;;;;;;9.75;8.00;;;;;13.98;63.85;101777.03;5055473;27;45362;-72
2023/09/24 03:52:06;;;;;;;;;11.50;9.00;;;;;13.85;63.85;101760.69;5035904;28;45678;-72
2023/09/24 03:54:32;;;;;;;;;13.00;11.50;;;;;13.98;63.88;101773.53;5049042;28;45540;-72
2023/09/24 03:56:58;;;;;;;;;13.00;10.00;;;;;13.85;63.85;101754.56;5051936;28;45607;-72
2023/09/24 03:59:23;;;;;;;;;11.25;11.00;;;;;13.86;63.98;101758.91;5050923;28;45382;-72
2023/09/24 04:01:49;;;;;;;;;13.00;10.00;;;;;13.93;64.17;101785.94;5057196;27;45316;-72
2023/09/24 04:04:14;;;;;;;;;11.00;9.00;;;;;13.85;64.15;101775.63;5047614;28;45541;-72
2023/09/24 04:06:40;;;;;;;;;14.25;10.00;;;;;13.91;63.69;101791.25;5053033;28;45417;-72
2023/09/24 04:09:06;;;;;;;;;14.00;10.25;;;;;13.80;63.66;101774.84;5057704;28;45624;-72
2023/09/24 04:11:32;;;;;;;;;13.75;10.50;;;;;13.88;64.00;101791.31;5047214;28;45534;-72
2023/09/24 04:14:00;;;;;;;;;12.75;9.00;;;;;13.81;63.70;101777.44;5055240;28;45686;-72
2023/09/24 04:16:28;;;;;;;;;14.50;9.00;;;;;13.73;63.86;101765.38;5053082;28;45218;-72
2023/09/24 04:18:53;;;;;;;;;12.25;9.75;;;;;13.85;63.71;101788.78;5055089;28;45494;-72
2023/09/24 04:21:19;;;;;;;;;11.75;9.00;;;;;13.85;64.35;101788.78;5057533;28;65476;-72
2023/09/24 04:23:48;;;;;;;;;10.00;10.00;;;;;13.86;64.18;101791.38;5039906;28;45292;-72
2023/09/24 04:26:19;;;;;;;;;11.00;9.25;;;;;13.85;63.86;101784.38;5030985;28;45719;-72
2023/09/24 04:28:45;;;;;;;;;11.00;11.00;;;;;13.72;64.32;101761.00;5045550;28;45434;-72
2023/09/24 04:31:11;;;;;;;;;12.75;10.00;;;;;13.73;64.30;101766.25;5050551;27;46339;-72
2023/09/24 04:33:38;;;;;;;;;9.75;9.25;;;;;13.65;63.98;101768.16;5049034;28;45533;-73
2023/09/24 04:36:05;;;;;;;;;9.00;8.25;;;;;13.77;64.55;101780.19;5052136;28;45434;-72
2023/09/24 04:38:31;;;;;;;;;14.25;11.00;;;;;13.79;64.15;101783.63;5050854;28;45502;-72
2023/09/24 04:40:57;;;;;;;;;10.00;8.75;;;;;13.77;64.22;101777.56;5054678;28;47245;-72
2023/09/24 04:43:22;;;;;;;;;13.00;9.75;;;;;13.76;64.41;101776.69;5056443;28;45553;-72
2023/09/24 04:45:48;;;;;;;;;13.00;10.00;;;;;13.71;64.54;101769.81;5045773;28;49532;-72
2023/09/24 04:48:13;;;;;;;;;13.00;9.75;;;;;13.74;64.59;101782.88;5046112;28;45596;-71
2023/09/24 04:50:38;;;;;;;;;13.00;9.00;;;;;13.70;63.98;101782.09;5056223;28;76676;-72
2023/09/24 04:53:06;;;;;;;;;11.75;10.00;;;;;13.69;64.17;101783.00;5056647;28;45980;-72
2023/09/24 04:55:32;;;;;;;;;10.50;8.00;;;;;13.65;64.44;101779.56;5046803;28;45451;-71
2023/09/24 04:57:57;;;;;;;;;10.75;9.50;;;;;13.67;64.62;101785.66;5055640;28;45415;-72
2023/09/24 05:00:25;;;;;;;;;9.25;7.50;;;;;13.62;64.23;101774.38;5051033;28;73169;-72
2023/09/24 05:02:51;;;;;;;;;12.50;8.75;;;;;13.62;64.18;101774.38;5057063;28;45475;-72
2023/09/24 05:05:19;;;;;;;;;9.50;8.00;;;;;13.58;64.37;101766.59;5070769;27;45340;-72
2023/09/24 05:07:44;;;;;;;;;8.00;8.00;;;;;13.66;64.16;101785.69;5052887;28;45517;-72
2023/09/24 05:10:10;;;;;;;;;9.50;8.75;;;;;13.63;64.51;101780.50;5046630;28;45493;-72
2023/09/24 05:12:35;;;;;;;;;12.25;9.00;;;;;13.64;64.68;101787.50;5044039;28;45428;-72
2023/09/24 05:15:02;;;;;;;;;9.00;7.75;;;;;13.64;64.54;101796.25;5042618;28;45781;-72
2023/09/24 05:17:27;;;;;;;;;10.00;8.25;;;;;13.61;64.35;101787.56;5058773;28;45458;-72
2023/09/24 05:19:52;;;;;;;;;9.75;8.25;;;;;13.59;64.77;101787.59;5053878;28;47106;-71
2023/09/24 05:22:18;;;;;;;;;11.00;8.00;;;;;13.59;64.42;101787.59;5037175;28;50622;-72
2023/09/24 05:24:43;;;;;;;;;11.50;8.50;;;;;13.55;64.50;101791.19;5064806;28;45448;-72
2023/09/24 05:27:08;;;;;;;;;12.25;9.00;;;;;13.56;64.61;101794.69;5052138;28;61227;-72
2023/09/24 05:29:34;;;;;;;;;9.75;6.00;;;;;13.55;64.64;101791.19;5052245;28;63234;-73
2023/09/24 05:32:01;;;;;;;;;11.75;9.00;;;;;13.54;64.92;101789.47;5052022;28;45212;-72
2023/09/24 05:34:27;;;;;;;;;8.25;7.50;;;;;13.53;64.90;101786.84;5049083;28;45332;-73
2023/09/24 05:36:52;;;;;;;;;7.75;7.50;;;;;13.53;64.43;101786.84;5044439;28;45636;-72
2023/09/24 05:39:18;;;;;;;;;9.50;8.75;;;;;13.53;64.56;101795.63;5052250;28;71880;-72
2023/09/24 05:41:44;;;;;;;;;9.25;9.00;;;;;13.52;64.73;101796.53;5048858;28;45268;-72
2023/09/24 05:44:09;;;;;;;;;8.00;8.00;;;;;13.51;64.83;101794.81;5065866;27;45318;-72
2023/09/24 05:46:34;;;;;;;;;9.00;8.00;;;;;13.51;64.96;101792.19;5046395;28;45584;-72
2023/09/24 05:49:00;;;;;;;;;10.00;8.00;;;;;13.48;64.77;101787.84;5051993;28;65578;-72
2023/09/24 05:51:25;;;;;;;;;8.25;8.25;;;;;13.50;64.52;101792.22;5051017;28;45478;-72
2023/09/24 05:53:52;;;;;;;;;10.75;8.25;;;;;13.50;64.79;101802.72;5054837;28;45338;-72
2023/09/24 05:56:18;;;;;;;;;9.50;8.00;;;;;13.48;64.85;101803.63;5045014;28;45485;-72
2023/09/24 05:58:43;;;;;;;;;12.00;8.75;;;;;13.48;64.88;101808.03;5050644;28;45465;-72
2023/09/24 06:01:14;;;;;;;;;8.50;6.50;;;;;13.48;65.10;101806.25;5046221;28;59184;-72
2023/09/24 06:03:39;;;;;;;;;8.75;8.75;;;;;13.51;64.63;101810.59;5043554;28;45380;-72
2023/09/24 06:06:08;;;;;;;;;12.50;9.50;;;;;13.50;64.66;101806.22;5062624;28;61392;-72
2023/09/24 06:08:34;;;;;;;;;14.50;8.25;;;;;13.52;64.59;101809.69;5042780;27;46847;-71
2023/09/24 06:11:00;;;;;;;;;11.00;9.25;;;;;13.53;64.55;101815.78;5045719;28;45639;-72
2023/09/24 06:13:25;;;;;;;;;11.00;8.00;;;;;13.52;64.43;101809.69;5056000;28;46437;-71
2023/09/24 06:16:01;;;;;;;;;9.50;8.00;;;;;13.52;64.74;101809.69;5055164;28;45509;-70
2023/09/24 06:18:27;;;;;;;;;11.00;8.25;;;;;13.55;64.57;101812.25;5049983;28;46120;-71
2023/09/24 06:20:53;;;;;;;;;11.50;8.00;;;;;13.55;64.92;101814.88;5053752;28;45496;-71
2023/09/24 06:23:19;;;;;;;;;8.25;7.75;;;;;13.57;64.47;101814.84;5053207;28;45556;-71
2023/09/24 06:25:44;;;;;;;;;11.75;7.00;;;;;13.60;64.48;101820.03;5048005;28;45581;-71
2023/09/24 06:28:09;;;;;;;;;8.00;5.25;;;;;13.62;64.11;101834.03;5042548;28;46763;-69
2023/09/24 06:30:36;;;;;;;;;10.25;6.75;;;;;13.61;64.35;101827.00;5052209;28;45473;-67
2023/09/24 06:33:03;;;;;;;;;12.00;8.75;;;;;13.64;64.43;101840.97;5052943;28;45324;-68
2023/09/24 06:35:28;;;;;;;;;11.00;9.00;;;;;13.65;64.60;101841.81;5049330;28;45280;-71
2023/09/24 06:37:54;;;;;;;;;9.00;6.75;;;;;13.68;64.20;101844.41;5046036;28;71467;-72
2023/09/24 06:40:19;;;;;;;;;6.00;5.75;;;;;13.70;64.53;101841.72;5047617;28;52276;-70
2023/09/24 06:42:45;;;;;;;;;13.00;8.75;;;;;13.68;64.65;101847.03;5051442;28;45439;-71
2023/09/24 06:45:11;;;;;;;;;11.00;9.25;;;;;13.69;64.21;101838.25;5041877;28;45398;-73
2023/09/24 06:47:36;;;;;;;;;9.25;8.00;;;;;13.71;64.03;101844.34;5046164;28;46284;-71
2023/09/24 06:50:02;;;;;;;;;11.00;9.00;;;;;13.72;64.23;101842.56;5054472;28;45885;-70
2023/09/24 06:52:30;;;;;;;;;18.75;10.00;;;;;13.73;64.00;101845.16;5053693;28;45506;-72
2023/09/24 06:54:56;;;;;;;;;14.00;9.00;;;;;13.75;64.02;101837.25;5058277;28;45447;-70
2023/09/24 06:57:21;;;;;;;;;13.00;9.50;;;;;13.73;64.19;101837.25;5071694;27;46354;-71
2023/09/24 06:59:47;;;;;;;;;14.00;9.50;;;;;13.75;63.98;101835.47;5047828;28;64194;-71
2023/09/24 07:02:14;;;;;;;;;21.50;16.00;;;;;13.75;64.04;101843.34;5044091;28;45348;-73
2023/09/24 07:04:39;;;;;;;;;41.50;30.50;;;;;13.76;64.32;101841.63;5053965;28;46253;-72
2023/09/24 07:07:07;;;;;;;;;23.00;16.50;;;;;13.77;64.25;101838.91;5050861;28;54335;-73
2023/09/24 07:09:33;;;;;;;;;14.25;10.25;;;;;13.81;63.78;101843.22;5053721;28;45724;-74
2023/09/24 07:11:58;;;;;;;;;14.75;9.75;;;;;13.85;63.57;101841.41;5049778;28;45332;-71
2023/09/24 07:14:24;;;;;;;;;10.75;8.25;;;;;13.80;63.97;101830.09;5046163;28;45544;-72
2023/09/24 07:16:49;;;;;;;;;8.50;8.50;;;;;13.93;64.25;101843.84;5041187;28;47340;-71
2023/09/24 07:19:14;;;;;;;;;11.75;8.50;;;;;13.95;64.04;101842.91;5040652;28;45292;-71
2023/09/24 07:21:40;;;;;;;;;10.25;7.00;;;;;13.99;63.68;101843.72;5045555;28;45498;-71
2023/09/24 07:24:06;;;;;;;;;11.50;10.25;;;;;14.05;63.42;101854.09;5039043;28;48812;-72
2023/09/24 07:26:32;;;;;;;;;12.00;9.50;;;;;14.07;63.61;101849.63;5042356;28;45699;-72
2023/09/24 07:28:57;;;;;;;;;10.75;9.00;;;;;14.11;63.49;101848.69;5037833;28;60015;-76
2023/09/24 07:31:25;;;;;;;;;10.75;10.00;;;;;14.15;63.58;101852.13;5044839;28;45367;-69
2023/09/24 07:33:55;;;;;;;;;8.00;7.25;;;;;14.17;63.29;101845.91;5047231;28;46156;-70
2023/09/24 07:36:21;;;;;;;;;8.50;7.75;;;;;14.21;63.40;101838.78;5045786;28;45569;-75
2023/09/24 07:38:47;;;;;;;;;9.75;8.00;;;;;14.25;63.00;101850.97;5046231;28;45891;-75
2023/09/24 07:41:12;;;;;;;;;9.50;7.25;;;;;14.26;63.30;101844.81;5052170;28;45476;-74
2023/09/24 07:43:40;;;;;;;;;9.00;8.00;;;;;14.35;63.23;101848.97;5059952;28;45774;-73
2023/09/24 07:46:12;;;;;;;;;11.25;8.75;;;;;14.37;62.97;101837.50;5058090;28;47138;-77
2023/09/24 07:48:47;;;;;;;;;19.50;16.00;;;;;14.42;62.99;101843.50;5058661;28;45492;-76
2023/09/24 07:51:13;;;;;;;;;37.50;29.75;;;;;14.50;62.77;101845.09;5062236;28;45321;-74
2023/09/24 07:53:38;;;;;;;;;18.75;16.00;;;;;14.54;61.83;101847.63;5044205;28;45384;-77
2023/09/24 07:56:09;;;;;;;;;11.25;9.00;;;;;14.58;62.11;101854.56;5040704;28;45502;-77
2023/09/24 07:58:35;;;;;;;;;8.67;6.33;;;;;14.64;61.74;101855.31;5050098;28;46139;-77
2023/09/24 08:01:04;;;;;;;;;11.00;8.00;;;;;14.69;61.67;101853.41;5051102;28;45287;-77
2023/09/24 08:03:30;;;;;;;;;8.75;7.00;;;;;14.74;62.02;101851.53;5062141;28;45191;-77
2023/09/24 08:05:56;;;;;;;;;11.25;7.50;;;;;14.81;61.65;101856.59;5043660;28;45416;-77
2023/09/24 08:08:23;;;;;;;;;7.75;6.50;;;;;14.86;61.55;101861.75;5044515;28;45278;-77
2023/09/24 08:10:48;;;;;;;;;10.75;8.00;;;;;14.92;61.04;101856.28;5058154;28;45431;-72
2023/09/24 08:13:14;;;;;;;;;8.00;5.50;;;;;14.97;60.73;101854.41;5051845;28;45525;-72
2023/09/24 08:15:39;;;;;;;;;8.75;7.00;;;;;15.02;61.13;101848.16;5059993;28;46110;-72
2023/09/24 08:18:09;;;;;;;;;5.00;5.00;;;;;15.09;60.94;101863.75;5045444;28;64721;-72
2023/09/24 08:20:37;;;;;;;;;7.00;7.00;;;;;15.12;60.40;101857.50;5052251;28;45484;-70
2023/09/24 08:23:03;;;;;;;;;5.75;5.50;;;;;15.21;60.41;101870.47;5074144;27;45392;-72
2023/09/24 08:25:30;;;;;;;;;6.50;4.50;;;;;15.25;60.17;101858.91;5065314;28;46215;-72
2023/09/24 08:27:55;;;;;;;;;7.25;6.00;;;;;15.25;59.37;101856.28;5044143;28;45404;-71
2023/09/24 08:30:20;;;;;;;;;9.75;5.50;;;;;15.35;59.52;101854.22;5042650;28;46602;-71
2023/09/24 08:32:46;;;;;;;;;6.75;5.00;;;;;15.40;59.74;101859.38;5050176;28;45455;-72
2023/09/24 08:35:11;;;;;;;;;4.00;3.50;;;;;15.46;59.29;101859.22;5046693;28;46390;-72
2023/09/24 08:37:37;;;;;;;;;9.75;4.50;;;;;15.52;59.30;101857.22;5067867;28;45366;-72
2023/09/24 08:40:03;;;;;;;;;4.50;4.00;;;;;15.60;58.96;101864.94;5047191;28;45471;-71
2023/09/24 08:42:31;;;;;;;;;5.00;4.00;;;;;15.65;59.01;101855.13;5064175;28;45457;-72
2023/09/24 08:45:09;;;;;;;;;4.75;3.50;;;;;15.71;58.78;101854.91;5053961;28;46128;-72
2023/09/24 08:47:35;;;;;;;;;6.25;4.75;;;;;15.80;58.28;101856.44;5046493;28;45452;-72
2023/09/24 08:50:03;;;;;;;;;7.75;5.00;;;;;15.87;58.50;101851.84;5049321;28;45597;-71
2023/09/24 08:52:31;;;;;;;;;5.75;3.00;;;;;15.93;58.61;101856.91;5052534;28;45416;-73
2023/09/24 08:54:57;;;;;;;;;4.75;3.25;;;;;16.01;57.90;101856.69;5053028;28;47764;-75
2023/09/24 08:57:22;;;;;;;;;5.50;4.00;;;;;16.06;58.20;101842.41;5072569;28;71463;-74
2023/09/24 08:59:48;;;;;;;;;6.75;3.25;;;;;16.16;57.52;101858.81;5048802;28;53330;-71
2023/09/24 09:02:13;;;;;;;;;4.00;3.00;;;;;16.19;56.99;101848.16;5058189;28;45410;-73
2023/09/24 09:04:52;;;;;;;;;6.50;3.50;;;;;16.28;56.95;101850.50;5065791;28;65327;-71
2023/09/24 09:07:17;;;;;;;;;6.25;3.75;;;;;16.35;57.07;101850.31;5054968;28;45289;-69
2023/09/24 09:09:55;;;;;;;;;2.75;2.75;;;;;16.41;56.78;101843.00;5054231;28;45332;-71
2023/09/24 09:12:21;;;;;;;;;4.50;2.50;;;;;16.48;56.67;101841.03;5041308;28;45552;-72
2023/09/24 09:14:47;;;;;;;;;6.00;2.50;;;;;16.55;56.75;101842.56;5045820;28;47000;-71
2023/09/24 09:17:12;;;;;;;;;3.25;3.00;;;;;16.63;56.79;101837.88;5041736;28;65981;-72
2023/09/24 09:19:57;;;;;;;;;5.00;3.25;;;;;16.70;55.98;101841.19;5041180;28;45292;-71
2023/09/24 09:22:24;;;;;;;;;4.00;4.00;;;;;16.78;55.75;101843.53;5057561;28;45486;-70
2023/09/24 09:25:07;;;;;;;;;4.00;3.50;;;;;16.85;56.07;101831.88;5031529;28;47008;-71
2023/09/24 09:27:34;;;;;;;;;7.25;3.75;;;;;16.92;55.70;101841.28;5043901;28;45252;-72
2023/09/24 09:30:16;;;;;;;;;3.75;3.00;;;;;16.99;55.84;101831.38;5041371;28;45424;-70
2023/09/24 09:32:43;;;;;;;;;4.00;2.75;;;;;17.06;55.04;101835.50;5077513;27;45537;-72
2023/09/24 09:35:09;;;;;;;;;5.75;3.75;;;;;17.13;55.16;101837.00;5042891;27;46927;-73
2023/09/24 09:37:35;;;;;;;;;5.00;4.00;;;;;17.19;55.38;101831.50;5051064;28;45313;-72
2023/09/24 09:40:00;;;;;;;;;2.25;2.25;;;;;17.29;54.18;101836.47;5042136;28;46319;-72
2023/09/24 09:42:30;;;;;;;;;9.75;7.25;;;;;17.34;54.89;101826.56;5054225;28;65537;-72
2023/09/24 09:45:02;;;;;;;;;9.50;8.00;;;;;17.40;54.74;101824.53;5063309;27;45398;-69
2023/09/24 09:47:28;;;;;;;;;4.00;3.25;;;;;17.50;55.10;101822.41;5055908;28;45292;-70
2023/09/24 09:50:00;;;;;;;;;4.75;2.00;;;;;17.59;54.56;101821.19;5051510;28;45251;-72
2023/09/24 09:52:35;;;;;;;;;6.75;3.25;;;;;17.68;54.63;101812.88;5055288;28;45387;-72
2023/09/24 09:55:06;;;;;;;;;3.75;2.75;;;;;17.76;54.45;101809.91;5051939;28;45335;-69
2023/09/24 09:57:32;;;;;;;;;4.50;2.50;;;;;17.84;53.49;101813.97;5041358;28;45445;-70
2023/09/24 09:59:59;;;;;;;;;4.00;2.25;;;;;17.91;53.69;101811.13;5044172;28;45467;-70
2023/09/24 10:02:27;;;;;;;;;4.00;1.75;;;;;17.97;53.58;101811.75;5036758;28;46307;-70
2023/09/24 10:04:52;;;;;;;;;5.00;3.00;;;;;18.04;52.56;101809.69;5039731;28;45374;-71
2023/09/24 10:07:18;;;;;;;;;2.00;2.00;;;;;18.13;53.30;101806.69;5043150;28;71831;-74
2023/09/24 10:09:43;;;;;;;;;3.00;2.75;;;;;18.23;53.29;101803.66;5049589;28;68320;-72
2023/09/24 10:12:09;;;;;;;;;5.50;3.00;;;;;18.32;53.05;101804.09;5050415;28;45224;-74
2023/09/24 10:14:36;;;;;;;;;4.00;2.50;;;;;18.39;52.47;101800.25;5059697;28;46418;-72
2023/09/24 10:17:23;;;;;;;;;2.25;2.25;;;;;18.51;52.81;101798.03;5047572;28;45454;-69
2023/09/24 10:19:55;;;;;;;;;4.25;3.75;;;;;18.60;52.25;101792.31;5049441;28;45291;-69
2023/09/24 10:22:27;;;;;;;;;2.75;1.75;;;;;18.67;49.71;101793.75;5065034;27;45788;-71
2023/09/24 10:24:53;;;;;;;;;3.00;3.00;;;;;18.72;51.04;101782.97;5043277;28;45581;-69
2023/09/24 10:27:30;;;;;;;;;3.25;2.25;;;;;18.82;50.44;101778.97;5057764;28;45188;-70
2023/09/24 10:29:58;;;;;;;;;2.50;2.50;;;;;18.89;48.86;101776.91;5048021;28;45538;-69
2023/09/24 10:32:25;;;;;;;;;3.25;3.25;;;;;18.93;50.33;101770.56;5060943;28;45494;-71
2023/09/24 10:34:59;;;;;;;;;2.50;2.50;;;;;19.00;49.00;101771.13;5047653;28;46330;-71
2023/09/24 10:37:33;;;;;;;;;3.00;2.00;;;;;19.04;49.19;101760.31;5046844;28;45392;-72
2023/09/24 10:40:05;;;;;;;;;3.00;1.50;;;;;19.09;47.79;101763.63;5043406;28;46994;-71
2023/09/24 10:42:31;;;;;;;;;2.25;2.00;;;;;19.12;48.41;101762.59;5048899;28;45440;-70
2023/09/24 10:45:06;;;;;;;;;2.50;2.00;;;;;19.20;49.32;101759.59;5042435;28;45561;-70
2023/09/24 10:47:34;;;;;;;;;6.75;3.75;;;;;19.25;48.29;101760.25;5051604;28;45164;-77
2023/09/24 10:50:15;;;;;;;;;2.25;0.75;;;;;19.31;48.98;101752.84;5047384;28;45331;-71
2023/09/24 10:52:58;;;;;;;;;2.00;2.00;;;;;19.40;48.34;101761.31;5050992;28;45492;-73
2023/09/24 10:55:29;;;;;;;;;4.00;2.00;;;;;19.46;47.45;101763.66;5025849;28;48131;-70
2023/09/24 10:57:57;;;;;;;;;4.50;2.50;;;;;19.46;48.32;101751.28;5053405;28;45442;-71
2023/09/24 11:00:25;;;;;;;;;3.00;1.75;;;;;19.56;47.97;101753.47;5054780;28;45418;-73
2023/09/24 11:03:03;;;;;;;;;3.25;2.00;;;;;19.61;48.12;101743.50;5049685;28;46011;-71
2023/09/24 11:05:30;;;;;;;;;4.75;3.25;;;;;19.62;45.08;101735.44;5050516;28;46707;-70
2023/09/24 11:07:56;;;;;;;;;3.25;2.75;;;;;19.68;47.35;101732.47;5048387;28;45454;-72
2023/09/24 11:10:23;;;;;;;;;5.50;2.50;;;;;19.75;47.50;101730.41;5066246;27;45435;-71
2023/09/24 11:12:52;;;;;;;;;5.25;1.50;;;;;19.80;47.17;101732.84;5054674;28;45683;-71
2023/09/24 11:15:19;;;;;;;;;3.75;2.25;;;;;19.82;46.15;101733.63;5051207;28;45387;-72
2023/09/24 11:17:45;;;;;;;;;2.75;1.25;;;;;19.85;46.76;101734.34;5061606;28;45380;-72